Time;durP1;ratioP1;P1;durP2;ratioP2;P2;SDS_P1;SDS_P2;PMS_P1;PMS_P2;Temp;Humidity;BMP_temperature;BMP_pressure;BME280_temperature;BME280_humidity;BME280_pressure;Samples;Min_cycle;Max_cycle;Signal;HPM_P1;HPM_P2
2023/04/04 00:00:23;;;;;;;;;;;2.60;96.60;;;;;;2057743;28;19913;-72
2023/04/04 00:01:23;;;;;;;;;;;2.60;96.70;;;;;;2056922;28;19916;-72
2023/04/04 00:02:24;;;;;;;;;;;2.60;96.90;;;;;;2057617;28;19914;-72
2023/04/04 00:03:24;;;;;;;;;;;2.60;97.20;;;;;;2059171;28;20770;-72
2023/04/04 00:04:26;;;;;;;;;;;2.60;97.60;;;;;;2056285;28;19918;-72
2023/04/04 00:05:27;;;;;;;;;;;2.50;97.80;;;;;;2056698;28;19910;-72
2023/04/04 00:06:27;;;;;;;;;;;2.50;97.90;;;;;;2056649;28;19920;-72
2023/04/04 00:07:28;;;;;;;;;;;2.50;98.00;;;;;;2059095;28;19914;-72
2023/04/04 00:08:28;;;;;;;;;;;2.50;98.00;;;;;;2059691;28;20362;-72
2023/04/04 00:09:29;;;;;;;;;;;2.50;98.10;;;;;;2061882;28;20053;-72
2023/04/04 00:10:30;;;;;;;;;;;2.50;98.30;;;;;;2059908;28;19956;-72
2023/04/04 00:11:30;;;;;;;;;;;2.50;98.40;;;;;;2058944;28;19917;-72
2023/04/04 00:12:31;;;;;;;;;;;2.40;98.50;;;;;;2059023;28;20826;-72
2023/04/04 00:13:32;;;;;;;;;;;2.40;98.70;;;;;;2061305;28;19922;-72
2023/04/04 00:14:32;;;;;;;;;;;2.40;98.80;;;;;;2060793;28;20381;-72
2023/04/04 00:15:34;;;;;;;;;;;2.40;98.90;;;;;;2062447;28;19905;-72
2023/04/04 00:16:35;;;;;;;;;;;2.40;99.10;;;;;;2060157;28;19917;-72
2023/04/04 00:17:36;;;;;;;;;;;2.40;99.30;;;;;;2060373;28;19912;-71
2023/04/04 00:18:36;;;;;;;;;;;2.30;99.50;;;;;;2059463;28;19977;-71
2023/04/04 00:19:37;;;;;;;;;;;2.30;99.60;;;;;;2058993;28;19914;-71
2023/04/04 00:20:37;;;;;;;;;;;2.30;99.80;;;;;;2064385;28;19964;-71
2023/04/04 00:21:38;;;;;;;;;;;2.30;99.90;;;;;;2065176;28;19905;-72
2023/04/04 00:22:38;;;;;;;;;;;2.30;99.90;;;;;;2056894;28;19917;-72
2023/04/04 00:23:38;;;;;;;;;;;2.30;99.90;;;;;;2059118;28;19961;-72
2023/04/04 00:24:39;;;;;;;;;;;2.30;99.90;;;;;;2060168;28;19957;-72
2023/04/04 00:25:39;;;;;;;;;;;2.20;99.90;;;;;;2058335;28;19913;-72
2023/04/04 00:26:40;;;;;;;;;;;2.20;99.90;;;;;;2058901;28;19917;-72
2023/04/04 00:27:41;;;;;;;;;;;2.20;99.90;;;;;;2061768;28;20345;-72
2023/04/04 00:28:41;;;;;;;;;;;2.20;99.90;;;;;;2059539;28;19918;-72
2023/04/04 00:29:41;;;;;;;;;;;2.20;99.90;;;;;;2059103;28;19910;-72
2023/04/04 00:30:42;;;;;;;;;;;2.20;99.90;;;;;;2058911;28;19914;-72
2023/04/04 00:31:42;;;;;;;;;;;2.20;99.90;;;;;;2060391;28;19909;-72
2023/04/04 00:32:43;;;;;;;;;;;2.10;99.90;;;;;;2058274;28;19906;-72
2023/04/04 00:33:43;;;;;;;;;;;2.10;99.90;;;;;;2061416;28;19913;-72
2023/04/04 00:34:44;;;;;;;;;;;2.10;99.90;;;;;;2065923;28;21867;-72
2023/04/04 00:35:44;;;;;;;;;;;2.10;99.90;;;;;;2066015;28;19917;-72
2023/04/04 00:36:46;;;;;;;;;;;2.10;99.90;;;;;;2059185;28;19921;-72
2023/04/04 00:37:47;;;;;;;;;;;2.10;99.90;;;;;;2059022;28;19910;-72
2023/04/04 00:38:47;;;;;;;;;;;2.10;99.90;;;;;;2059887;28;20881;-72
2023/04/04 00:39:48;;;;;;;;;;;2.00;99.90;;;;;;2059009;28;20001;-72
2023/04/04 00:40:49;;;;;;;;;;;2.00;99.90;;;;;;2074570;28;20289;-72
2023/04/04 00:41:50;;;;;;;;;;;2.00;99.90;;;;;;2074654;28;19995;-72
2023/04/04 00:42:50;;;;;;;;;;;2.00;99.90;;;;;;2059561;28;20404;-72
2023/04/04 00:43:51;;;;;;;;;;;2.00;99.90;;;;;;2060573;28;19910;-72
2023/04/04 00:44:52;;;;;;;;;;;1.90;99.90;;;;;;2059884;28;19914;-72
2023/04/04 00:45:52;;;;;;;;;;;2.00;99.90;;;;;;2058413;28;19920;-72
2023/04/04 00:46:53;;;;;;;;;;;1.90;99.90;;;;;;2059260;28;19906;-72
2023/04/04 00:47:54;;;;;;;;;;;1.90;99.90;;;;;;2059925;28;20314;-72
2023/04/04 00:48:54;;;;;;;;;;;1.90;99.90;;;;;;2065048;28;19916;-72
2023/04/04 00:49:55;;;;;;;;;;;1.90;99.90;;;;;;2067656;28;20385;-72
2023/04/04 00:50:55;;;;;;;;;;;1.90;99.90;;;;;;2056977;28;20004;-72
2023/04/04 00:51:56;;;;;;;;;;;1.90;99.90;;;;;;2060213;28;19917;-72
2023/04/04 00:52:57;;;;;;;;;;;1.90;99.90;;;;;;2058123;28;20461;-72
2023/04/04 00:53:58;;;;;;;;;;;1.90;99.90;;;;;;2058997;28;19924;-72
2023/04/04 00:54:58;;;;;;;;;;;1.80;99.90;;;;;;2058889;28;19910;-72
2023/04/04 00:55:59;;;;;;;;;;;1.80;99.90;;;;;;2060074;28;20447;-72
2023/04/04 00:57:00;;;;;;;;;;;1.80;99.90;;;;;;2061787;28;19913;-72
2023/04/04 00:58:01;;;;;;;;;;;1.80;99.90;;;;;;2061633;28;19920;-72
2023/04/04 00:59:02;;;;;;;;;;;1.80;99.90;;;;;;2060070;28;20475;-72
2023/04/04 01:00:04;;;;;;;;;;;1.80;99.90;;;;;;2058959;28;21427;-72
2023/04/04 01:01:05;;;;;;;;;;;1.80;99.90;;;;;;2059532;28;19914;-72
2023/04/04 01:02:05;;;;;;;;;;;1.80;99.90;;;;;;2060128;28;20381;-72
2023/04/04 01:03:09;;;;;;;;;;;1.80;99.90;;;;;;2057450;28;19921;-72
2023/04/04 01:04:09;;;;;;;;;;;1.70;99.90;;;;;;2059453;28;20149;-72
2023/04/04 01:05:11;;;;;;;;;;;1.70;99.90;;;;;;2059690;28;19929;-72
2023/04/04 01:06:12;;;;;;;;;;;1.70;99.90;;;;;;2059795;28;20033;-72
2023/04/04 01:07:13;;;;;;;;;;;1.70;99.90;;;;;;2056690;28;19956;-72
2023/04/04 01:08:16;;;;;;;;;;;1.70;99.90;;;;;;2059838;28;19914;-72
2023/04/04 01:09:17;;;;;;;;;;;1.70;99.90;;;;;;2060517;28;19910;-72
2023/04/04 01:10:18;;;;;;;;;;;1.70;99.90;;;;;;2061791;28;20374;-72
2023/04/04 01:11:18;;;;;;;;;;;1.60;99.90;;;;;;2058334;28;19949;-72
2023/04/04 01:12:18;;;;;;;;;;;1.70;99.90;;;;;;2067699;28;19906;-72
2023/04/04 01:13:19;;;;;;;;;;;1.60;99.90;;;;;;2067227;28;21330;-72
2023/04/04 01:14:20;;;;;;;;;;;1.60;99.90;;;;;;2061691;28;19917;-72
2023/04/04 01:15:20;;;;;;;;;;;1.60;99.90;;;;;;2057940;28;19906;-72
2023/04/04 01:16:22;;;;;;;;;;;1.60;99.90;;;;;;2073332;28;19905;-72
2023/04/04 01:17:23;;;;;;;;;;;1.60;99.90;;;;;;2075115;28;19955;-72
2023/04/04 01:18:25;;;;;;;;;;;1.60;99.90;;;;;;2074505;28;19909;-72
2023/04/04 01:19:29;;;;;;;;;;;1.60;99.90;;;;;;2074466;28;19924;-72
2023/04/04 01:20:32;;;;;;;;;;;1.60;99.90;;;;;;2058946;28;20035;-72
2023/04/04 01:21:33;;;;;;;;;;;1.60;99.90;;;;;;2059225;28;20000;-72
2023/04/04 01:22:34;;;;;;;;;;;1.60;99.90;;;;;;2060667;28;19910;-72
2023/04/04 01:23:37;;;;;;;;;;;1.50;99.90;;;;;;2057431;28;20008;-72
2023/04/04 01:24:41;;;;;;;;;;;1.50;99.90;;;;;;2059132;28;20383;-72
2023/04/04 01:25:42;;;;;;;;;;;1.50;99.90;;;;;;2060881;28;19910;-72
2023/04/04 01:26:43;;;;;;;;;;;1.50;99.90;;;;;;2059052;28;19965;-72
2023/04/04 01:27:43;;;;;;;;;;;1.50;99.90;;;;;;2058238;28;19968;-72
2023/04/04 01:28:44;;;;;;;;;;;1.50;99.90;;;;;;2060102;28;20396;-72
2023/04/04 01:29:44;;;;;;;;;;;1.50;99.90;;;;;;2059423;28;19914;-72
2023/04/04 01:30:45;;;;;;;;;;;1.50;99.90;;;;;;2073777;28;19941;-72
2023/04/04 01:31:48;;;;;;;;;;;1.50;99.90;;;;;;2065845;28;20000;-72
2023/04/04 01:32:51;;;;;;;;;;;1.50;99.90;;;;;;2059044;28;19997;-72
2023/04/04 01:34:11;;;;;;;;;;;1.50;99.90;;;;;;2067339;28;19957;-72
2023/04/04 01:35:20;;;;;;;;;;;1.40;99.90;;;;;;2063653;28;19965;-72
2023/04/04 01:36:42;;;;;;;;;;;1.40;99.90;;;;;;2059338;28;20032;-72
2023/04/04 01:38:06;;;;;;;;;;;1.40;99.90;;;;;;2060611;28;19914;-72
2023/04/04 01:39:23;;;;;;;;;;;1.40;99.90;;;;;;2059577;28;20417;-72
2023/04/04 01:40:25;;;;;;;;;;;1.40;99.90;;;;;;2060687;28;19916;-72
2023/04/04 01:41:29;;;;;;;;;;;1.30;99.90;;;;;;2074133;28;20392;-72
2023/04/04 01:42:30;;;;;;;;;;;1.30;99.90;;;;;;2073972;28;20000;-72
2023/04/04 01:43:31;;;;;;;;;;;1.30;99.90;;;;;;2065840;28;19914;-72
2023/04/04 01:44:32;;;;;;;;;;;1.30;99.90;;;;;;2060289;28;20000;-72
2023/04/04 01:45:34;;;;;;;;;;;1.30;99.90;;;;;;2058712;28;19914;-72
2023/04/04 01:46:35;;;;;;;;;;;1.30;99.90;;;;;;2058693;28;19910;-72
2023/04/04 01:47:41;;;;;;;;;;;1.30;99.90;;;;;;2058078;28;19996;-72
2023/04/04 01:48:42;;;;;;;;;;;1.30;99.90;;;;;;2057234;28;19952;-72
2023/04/04 01:49:43;;;;;;;;;;;1.30;99.90;;;;;;2057421;28;19913;-72
2023/04/04 01:50:43;;;;;;;;;;;1.20;99.90;;;;;;2058863;28;20735;-72
2023/04/04 01:51:45;;;;;;;;;;;1.30;99.90;;;;;;2058997;28;20691;-72
2023/04/04 01:52:46;;;;;;;;;;;1.20;99.90;;;;;;2060713;28;19960;-72
2023/04/04 01:53:47;;;;;;;;;;;1.20;99.90;;;;;;2059552;28;19918;-72
2023/04/04 01:54:47;;;;;;;;;;;1.20;99.90;;;;;;2059247;28;19921;-72
2023/04/04 01:55:48;;;;;;;;;;;1.20;99.90;;;;;;2058330;28;19914;-72
2023/04/04 01:56:48;;;;;;;;;;;1.20;99.90;;;;;;2058355;28;19913;-72
2023/04/04 01:57:50;;;;;;;;;;;1.20;99.90;;;;;;2057349;28;19917;-72
2023/04/04 01:58:51;;;;;;;;;;;1.20;99.90;;;;;;2058021;28;20251;-72
2023/04/04 01:59:51;;;;;;;;;;;1.20;99.90;;;;;;2055794;28;20310;-72
2023/04/04 02:00:52;;;;;;;;;;;1.20;99.90;;;;;;2059853;28;19906;-72
2023/04/04 02:01:52;;;;;;;;;;;1.20;99.90;;;;;;2059176;28;19906;-72
2023/04/04 02:02:53;;;;;;;;;;;1.20;99.90;;;;;;2058541;28;20274;-72
2023/04/04 02:03:53;;;;;;;;;;;1.20;99.90;;;;;;2056110;28;19914;-72
2023/04/04 02:04:54;;;;;;;;;;;1.20;99.90;;;;;;2057232;28;20307;-72
2023/04/04 02:05:54;;;;;;;;;;;1.20;99.90;;;;;;2057969;28;19984;-72
2023/04/04 02:06:55;;;;;;;;;;;1.20;99.90;;;;;;2074665;28;19913;-72
2023/04/04 02:07:56;;;;;;;;;;;1.20;99.90;;;;;;2074628;28;19916;-72
2023/04/04 02:08:57;;;;;;;;;;;1.10;99.90;;;;;;2061457;28;19909;-72
2023/04/04 02:09:57;;;;;;;;;;;1.10;99.90;;;;;;2061050;28;19917;-72
2023/04/04 02:10:58;;;;;;;;;;;1.10;99.90;;;;;;2057844;28;19968;-72
2023/04/04 02:11:59;;;;;;;;;;;1.10;99.90;;;;;;2062540;28;19992;-72
2023/04/04 02:13:00;;;;;;;;;;;1.10;99.90;;;;;;2061396;28;19914;-72
2023/04/04 02:14:00;;;;;;;;;;;1.10;99.90;;;;;;2059440;28;19910;-72
2023/04/04 02:15:01;;;;;;;;;;;1.10;99.90;;;;;;2058111;28;19910;-72
2023/04/04 02:16:01;;;;;;;;;;;1.10;99.90;;;;;;2057720;28;19941;-72
2023/04/04 02:17:02;;;;;;;;;;;1.10;99.90;;;;;;2057913;28;19965;-72
2023/04/04 02:18:03;;;;;;;;;;;1.10;99.90;;;;;;2056485;28;19916;-72
2023/04/04 02:19:03;;;;;;;;;;;1.00;99.90;;;;;;2060576;28;19965;-72
2023/04/04 02:20:04;;;;;;;;;;;1.00;99.90;;;;;;2058539;28;19917;-72
2023/04/04 02:21:05;;;;;;;;;;;1.00;99.90;;;;;;2059938;28;20266;-72
2023/04/04 02:22:05;;;;;;;;;;;1.00;99.90;;;;;;2060775;28;20350;-72
2023/04/04 02:23:06;;;;;;;;;;;1.00;99.90;;;;;;2059290;28;19913;-72
2023/04/04 02:24:06;;;;;;;;;;;1.00;99.90;;;;;;2058264;28;19937;-72
2023/04/04 02:25:07;;;;;;;;;;;1.00;99.90;;;;;;2059172;28;20338;-72
2023/04/04 02:26:07;;;;;;;;;;;1.00;99.90;;;;;;2057761;28;19928;-72
2023/04/04 02:27:08;;;;;;;;;;;1.00;99.90;;;;;;2057509;28;20699;-72
2023/04/04 02:28:10;;;;;;;;;;;0.90;99.90;;;;;;2058969;28;20336;-72
2023/04/04 02:29:11;;;;;;;;;;;0.90;99.90;;;;;;2056816;28;20025;-72
2023/04/04 02:30:12;;;;;;;;;;;0.90;99.90;;;;;;2058986;28;19910;-72
2023/04/04 02:31:12;;;;;;;;;;;0.90;99.90;;;;;;2058721;28;19909;-72
2023/04/04 02:32:13;;;;;;;;;;;0.90;99.90;;;;;;2059574;28;19910;-72
2023/04/04 02:33:13;;;;;;;;;;;0.90;99.90;;;;;;2073101;28;20282;-72
2023/04/04 02:34:13;;;;;;;;;;;0.90;99.90;;;;;;2073522;28;19951;-72
2023/04/04 02:35:15;;;;;;;;;;;0.90;99.90;;;;;;2059734;28;19910;-72
2023/04/04 02:36:16;;;;;;;;;;;0.90;99.90;;;;;;2059613;28;20013;-72
2023/04/04 02:37:16;;;;;;;;;;;0.90;99.90;;;;;;2064782;28;19921;-72
2023/04/04 02:38:17;;;;;;;;;;;0.90;99.90;;;;;;2067083;28;19980;-72
2023/04/04 02:39:17;;;;;;;;;;;0.90;99.90;;;;;;2058199;28;19922;-72
2023/04/04 02:40:18;;;;;;;;;;;0.90;99.90;;;;;;2058010;28;19913;-72
2023/04/04 02:41:18;;;;;;;;;;;0.90;99.90;;;;;;2057766;28;19914;-72
2023/04/04 02:42:19;;;;;;;;;;;0.90;99.90;;;;;;2058051;28;19937;-72
2023/04/04 02:43:19;;;;;;;;;;;0.80;99.90;;;;;;2060675;28;19963;-72
2023/04/04 02:44:21;;;;;;;;;;;0.90;99.90;;;;;;2072256;28;19910;-72
2023/04/04 02:45:21;;;;;;;;;;;0.80;99.90;;;;;;2067620;28;19917;-72
2023/04/04 02:46:22;;;;;;;;;;;0.80;99.90;;;;;;2058419;28;20389;-72
2023/04/04 02:47:22;;;;;;;;;;;0.80;99.90;;;;;;2064696;28;19912;-72
2023/04/04 02:48:24;;;;;;;;;;;0.80;99.90;;;;;;2061146;28;19921;-72
2023/04/04 02:49:25;;;;;;;;;;;0.80;99.90;;;;;;2059537;28;19914;-72
2023/04/04 02:50:25;;;;;;;;;;;0.80;99.90;;;;;;2058510;28;19914;-72
2023/04/04 02:51:26;;;;;;;;;;;0.80;99.90;;;;;;2059258;28;19941;-72
2023/04/04 02:52:27;;;;;;;;;;;0.80;99.90;;;;;;2059686;28;19957;-72
2023/04/04 02:53:27;;;;;;;;;;;0.80;99.90;;;;;;2058290;28;19914;-72
2023/04/04 02:54:28;;;;;;;;;;;0.80;99.90;;;;;;2058887;28;21638;-72
2023/04/04 02:55:29;;;;;;;;;;;0.70;99.90;;;;;;2056948;28;19912;-72
2023/04/04 02:56:29;;;;;;;;;;;0.70;99.90;;;;;;2059885;28;19913;-72
2023/04/04 02:57:30;;;;;;;;;;;0.70;99.90;;;;;;2057768;28;19918;-72
2023/04/04 02:58:31;;;;;;;;;;;0.70;99.90;;;;;;2058930;28;20365;-72
2023/04/04 02:59:31;;;;;;;;;;;0.70;99.90;;;;;;2057562;28;19917;-72
2023/04/04 03:00:32;;;;;;;;;;;0.70;99.90;;;;;;2057497;28;19914;-72
2023/04/04 03:01:32;;;;;;;;;;;0.70;99.90;;;;;;2058530;28;19992;-72
2023/04/04 03:02:33;;;;;;;;;;;0.70;99.90;;;;;;2059450;28;20366;-72
2023/04/04 03:03:33;;;;;;;;;;;0.70;99.90;;;;;;2057131;28;19914;-74
2023/04/04 03:04:35;;;;;;;;;;;0.70;99.90;;;;;;2059226;28;19910;-72
2023/04/04 03:05:36;;;;;;;;;;;0.70;99.90;;;;;;2058049;28;20364;-72
2023/04/04 03:06:36;;;;;;;;;;;0.70;99.90;;;;;;2058230;28;20282;-72
2023/04/04 03:07:37;;;;;;;;;;;0.70;99.90;;;;;;2065746;28;19945;-72
2023/04/04 03:08:37;;;;;;;;;;;0.70;99.90;;;;;;2065411;28;20462;-72
2023/04/04 03:09:38;;;;;;;;;;;0.60;99.90;;;;;;2058108;28;19914;-72
2023/04/04 03:10:38;;;;;;;;;;;0.60;99.90;;;;;;2058380;28;19917;-72
2023/04/04 03:11:38;;;;;;;;;;;0.60;99.90;;;;;;2056689;28;19918;-72
2023/04/04 03:12:39;;;;;;;;;;;0.60;99.90;;;;;;2056842;28;19914;-72
2023/04/04 03:13:40;;;;;;;;;;;0.60;99.90;;;;;;2055927;28;20416;-72
2023/04/04 03:14:41;;;;;;;;;;;0.60;99.90;;;;;;2058266;28;20321;-72
2023/04/04 03:15:42;;;;;;;;;;;0.60;99.90;;;;;;2057589;28;19957;-72
2023/04/04 03:16:43;;;;;;;;;;;0.60;99.90;;;;;;2056575;28;20298;-72
2023/04/04 03:17:44;;;;;;;;;;;0.60;99.90;;;;;;2058959;28;20535;-72
2023/04/04 03:18:45;;;;;;;;;;;0.50;99.90;;;;;;2058853;28;20262;-72
2023/04/04 03:19:46;;;;;;;;;;;0.50;99.90;;;;;;2057549;28;19934;-72
2023/04/04 03:20:46;;;;;;;;;;;0.50;99.90;;;;;;2058008;28;19961;-72
2023/04/04 03:21:47;;;;;;;;;;;0.50;99.90;;;;;;2060149;28;19932;-72
2023/04/04 03:22:48;;;;;;;;;;;0.50;99.90;;;;;;2057874;28;19914;-72
2023/04/04 03:23:48;;;;;;;;;;;0.50;99.90;;;;;;2057740;28;19913;-72
2023/04/04 03:24:50;;;;;;;;;;;0.50;99.90;;;;;;2058805;28;20071;-72
2023/04/04 03:25:50;;;;;;;;;;;0.50;99.90;;;;;;2058159;28;19905;-72
2023/04/04 03:26:50;;;;;;;;;;;0.50;99.90;;;;;;2058285;28;19917;-72
2023/04/04 03:27:51;;;;;;;;;;;0.50;99.90;;;;;;2057709;28;20000;-72
2023/04/04 03:28:51;;;;;;;;;;;0.50;99.90;;;;;;2058637;28;19913;-72
2023/04/04 03:29:52;;;;;;;;;;;0.40;99.90;;;;;;2058807;28;19917;-72
2023/04/04 03:30:52;;;;;;;;;;;0.40;99.90;;;;;;2059892;28;19956;-72
2023/04/04 03:31:53;;;;;;;;;;;0.40;99.90;;;;;;2060273;28;20384;-72
2023/04/04 03:32:54;;;;;;;;;;;0.40;99.90;;;;;;2058640;28;19910;-72
2023/04/04 03:33:54;;;;;;;;;;;0.40;99.90;;;;;;2058085;28;19941;-72
2023/04/04 03:34:55;;;;;;;;;;;0.40;99.90;;;;;;2058403;28;19917;-72
2023/04/04 03:35:55;;;;;;;;;;;0.40;99.90;;;;;;2056076;28;20321;-72
2023/04/04 03:36:56;;;;;;;;;;;0.40;99.90;;;;;;2057227;28;19910;-72
2023/04/04 03:37:59;;;;;;;;;;;0.40;99.90;;;;;;2073555;28;20714;-72
2023/04/04 03:39:00;;;;;;;;;;;0.40;99.90;;;;;;2072249;28;20292;-72
2023/04/04 03:40:00;;;;;;;;;;;0.40;99.90;;;;;;2058658;28;19914;-72
2023/04/04 03:41:02;;;;;;;;;;;0.40;99.90;;;;;;2059130;28;20041;-72
2023/04/04 03:42:02;;;;;;;;;;;0.40;99.90;;;;;;2057352;28;20386;-72
2023/04/04 03:43:06;;;;;;;;;;;0.40;99.90;;;;;;2058497;28;20258;-72
2023/04/04 03:44:07;;;;;;;;;;;0.40;99.90;;;;;;2058447;28;20373;-72
2023/04/04 03:45:08;;;;;;;;;;;0.40;99.90;;;;;;2056989;28;20448;-72
2023/04/04 03:46:08;;;;;;;;;;;0.40;99.90;;;;;;2057181;28;20060;-72
2023/04/04 03:47:09;;;;;;;;;;;0.40;99.90;;;;;;2057440;28;20013;-72
2023/04/04 03:48:10;;;;;;;;;;;0.40;99.90;;;;;;2056983;28;19914;-72
2023/04/04 03:49:10;;;;;;;;;;;0.40;99.90;;;;;;2057733;28;19954;-72
2023/04/04 03:50:11;;;;;;;;;;;0.30;99.90;;;;;;2057321;28;20715;-72
2023/04/04 03:51:11;;;;;;;;;;;0.30;99.90;;;;;;2059626;28;19913;-72
2023/04/04 03:52:12;;;;;;;;;;;0.30;99.90;;;;;;2058279;28;20293;-72
2023/04/04 03:53:12;;;;;;;;;;;0.30;99.90;;;;;;2056860;28;20012;-72
2023/04/04 03:54:13;;;;;;;;;;;0.30;99.90;;;;;;2059783;28;19912;-72
2023/04/04 03:55:13;;;;;;;;;;;0.30;99.90;;;;;;2057618;28;19910;-72
2023/04/04 03:56:14;;;;;;;;;;;0.30;99.90;;;;;;2057729;28;19916;-72
2023/04/04 03:57:15;;;;;;;;;;;0.30;99.90;;;;;;2058039;28;19957;-72
2023/04/04 03:58:15;;;;;;;;;;;0.30;99.90;;;;;;2057599;28;20447;-72
2023/04/04 03:59:16;;;;;;;;;;;0.30;99.90;;;;;;2058392;28;20376;-72
2023/04/04 04:00:16;;;;;;;;;;;0.20;99.90;;;;;;2058078;28;20352;-72
2023/04/04 04:01:16;;;;;;;;;;;0.20;99.90;;;;;;2060096;28;19906;-72
2023/04/04 04:02:17;;;;;;;;;;;0.20;99.90;;;;;;2059628;28;19949;-72
2023/04/04 04:03:17;;;;;;;;;;;0.20;99.90;;;;;;2059730;28;20629;-72
2023/04/04 04:04:18;;;;;;;;;;;0.20;99.90;;;;;;2060395;28;19914;-72
2023/04/04 04:05:18;;;;;;;;;;;0.20;99.90;;;;;;2060216;28;20365;-72
2023/04/04 04:06:19;;;;;;;;;;;0.20;99.90;;;;;;2061119;28;19921;-72
2023/04/04 04:07:19;;;;;;;;;;;0.20;99.90;;;;;;2059791;28;19906;-72
2023/04/04 04:08:20;;;;;;;;;;;0.20;99.90;;;;;;2059934;28;20330;-72
2023/04/04 04:09:20;;;;;;;;;;;0.20;99.90;;;;;;2060964;28;19972;-72
2023/04/04 04:10:21;;;;;;;;;;;0.20;99.90;;;;;;2058286;28;19961;-72
2023/04/04 04:11:22;;;;;;;;;;;0.10;99.90;;;;;;2058513;28;19910;-72
2023/04/04 04:12:22;;;;;;;;;;;0.10;99.90;;;;;;2058399;28;20404;-72
2023/04/04 04:13:23;;;;;;;;;;;0.10;99.90;;;;;;2058852;28;19933;-72
2023/04/04 04:14:23;;;;;;;;;;;0.10;99.90;;;;;;2066562;28;19914;-72
2023/04/04 04:15:24;;;;;;;;;;;0.10;99.90;;;;;;2065759;28;19916;-72
2023/04/04 04:16:24;;;;;;;;;;;0.10;99.90;;;;;;2058970;28;19918;-72
2023/04/04 04:17:24;;;;;;;;;;;0.10;99.90;;;;;;2059313;28;19956;-72
2023/04/04 04:18:25;;;;;;;;;;;0.10;99.90;;;;;;2065813;28;19972;-72
2023/04/04 04:19:26;;;;;;;;;;;0.00;99.90;;;;;;2066721;28;19967;-72
2023/04/04 04:20:26;;;;;;;;;;;0.00;99.90;;;;;;2059742;28;19906;-72
2023/04/04 04:21:27;;;;;;;;;;;0.10;99.90;;;;;;2060349;28;19957;-72
2023/04/04 04:22:27;;;;;;;;;;;0.00;99.90;;;;;;2059376;28;20267;-72
2023/04/04 04:23:28;;;;;;;;;;;0.00;99.90;;;;;;2061843;28;19914;-72
2023/04/04 04:24:28;;;;;;;;;;;0.00;99.90;;;;;;2059670;28;19933;-72
2023/04/04 04:25:29;;;;;;;;;;;0.00;99.90;;;;;;2059005;28;19964;-72
2023/04/04 04:26:29;;;;;;;;;;;0.00;99.90;;;;;;2060130;28;19918;-72
2023/04/04 04:27:30;;;;;;;;;;;0.00;99.90;;;;;;2059655;28;19968;-72
2023/04/04 04:28:31;;;;;;;;;;;0.00;99.90;;;;;;2060594;28;20308;-72
2023/04/04 04:29:31;;;;;;;;;;;0.00;99.90;;;;;;2059178;28;19997;-72
2023/04/04 04:30:32;;;;;;;;;;;0.00;99.90;;;;;;2059153;28;20005;-72
2023/04/04 04:31:32;;;;;;;;;;;0.00;99.90;;;;;;2059846;28;19964;-72
2023/04/04 04:32:33;;;;;;;;;;;0.00;99.90;;;;;;2058187;28;19957;-72
2023/04/04 04:33:34;;;;;;;;;;;-0.10;99.90;;;;;;2060486;28;19913;-72
2023/04/04 04:34:35;;;;;;;;;;;-0.10;99.90;;;;;;2061914;28;19917;-72
2023/04/04 04:35:36;;;;;;;;;;;-0.10;99.90;;;;;;2058825;28;19914;-72
2023/04/04 04:36:37;;;;;;;;;;;-0.10;99.90;;;;;;2059726;28;20238;-72
2023/04/04 04:37:37;;;;;;;;;;;-0.10;99.90;;;;;;2057799;28;19980;-72
2023/04/04 04:38:37;;;;;;;;;;;-0.10;99.90;;;;;;2059793;28;19914;-72
2023/04/04 04:39:38;;;;;;;;;;;-0.10;99.90;;;;;;2059404;28;19906;-72
2023/04/04 04:40:38;;;;;;;;;;;-0.10;99.90;;;;;;2059444;28;19910;-72
2023/04/04 04:41:39;;;;;;;;;;;-0.10;99.90;;;;;;2059252;28;19910;-72
2023/04/04 04:42:43;;;;;;;;;;;-0.10;99.90;;;;;;2058899;28;20007;-72
2023/04/04 04:43:43;;;;;;;;;;;-0.10;99.90;;;;;;2059955;28;19960;-72
2023/04/04 04:44:44;;;;;;;;;;;-0.10;99.90;;;;;;2065272;28;19914;-72
2023/04/04 04:45:44;;;;;;;;;;;-0.10;99.90;;;;;;2065109;28;19909;-72
2023/04/04 04:46:45;;;;;;;;;;;-0.10;99.90;;;;;;2062480;28;20399;-72
2023/04/04 04:47:45;;;;;;;;;;;-0.10;99.90;;;;;;2062289;28;19914;-72
2023/04/04 04:48:46;;;;;;;;;;;-0.10;99.90;;;;;;2058754;28;19910;-72
2023/04/04 04:49:48;;;;;;;;;;;-0.10;99.90;;;;;;2060435;28;19917;-72
2023/04/04 04:50:48;;;;;;;;;;;-0.10;99.90;;;;;;2061133;28;20362;-72
2023/04/04 04:51:49;;;;;;;;;;;-0.10;99.90;;;;;;2061573;28;20475;-72
2023/04/04 04:52:51;;;;;;;;;;;-0.10;99.90;;;;;;2061546;28;19996;-72
2023/04/04 04:53:51;;;;;;;;;;;-0.10;99.90;;;;;;2058782;28;19918;-72
2023/04/04 04:54:54;;;;;;;;;;;-0.20;99.90;;;;;;2060820;28;19916;-72
2023/04/04 04:55:55;;;;;;;;;;;-0.20;99.90;;;;;;2060418;28;20419;-72
2023/04/04 04:56:55;;;;;;;;;;;-0.20;99.90;;;;;;2058975;28;20281;-72
2023/04/04 04:57:56;;;;;;;;;;;-0.20;99.90;;;;;;2059825;28;19910;-72
2023/04/04 04:58:57;;;;;;;;;;;-0.20;99.90;;;;;;2058205;28;19949;-72
2023/04/04 04:59:57;;;;;;;;;;;-0.20;99.90;;;;;;2059683;28;19918;-72
2023/04/04 05:00:58;;;;;;;;;;;-0.20;99.90;;;;;;2060669;28;19918;-72
2023/04/04 05:01:58;;;;;;;;;;;-0.20;99.90;;;;;;2058997;28;19981;-72
2023/04/04 05:02:59;;;;;;;;;;;-0.30;99.90;;;;;;2060419;28;19984;-72
2023/04/04 05:04:00;;;;;;;;;;;-0.20;99.90;;;;;;2060984;28;19913;-72
2023/04/04 05:05:00;;;;;;;;;;;-0.20;99.90;;;;;;2059213;28;19910;-72
2023/04/04 05:06:01;;;;;;;;;;;-0.20;99.90;;;;;;2061554;28;20400;-72
2023/04/04 05:07:02;;;;;;;;;;;-0.20;99.90;;;;;;2063098;28;19921;-72
2023/04/04 05:08:02;;;;;;;;;;;-0.20;99.90;;;;;;2061018;28;19921;-72
2023/04/04 05:09:03;;;;;;;;;;;-0.20;99.90;;;;;;2061674;28;19917;-72
2023/04/04 05:10:04;;;;;;;;;;;-0.20;99.90;;;;;;2058212;28;19928;-72
2023/04/04 05:11:05;;;;;;;;;;;-0.30;99.90;;;;;;2059055;28;19914;-72
2023/04/04 05:12:05;;;;;;;;;;;-0.30;99.90;;;;;;2058857;28;20507;-72
2023/04/04 05:13:05;;;;;;;;;;;-0.30;99.90;;;;;;2059343;28;20412;-72
2023/04/04 05:14:06;;;;;;;;;;;-0.30;99.90;;;;;;2059601;28;19957;-72
2023/04/04 05:15:06;;;;;;;;;;;-0.30;99.90;;;;;;2060871;28;19914;-73
2023/04/04 05:16:07;;;;;;;;;;;-0.30;99.90;;;;;;2061029;28;19972;-72
2023/04/04 05:17:08;;;;;;;;;;;-0.30;99.90;;;;;;2058462;28;20031;-72
2023/04/04 05:18:08;;;;;;;;;;;-0.30;99.90;;;;;;2058837;28;19914;-72
2023/04/04 05:19:08;;;;;;;;;;;-0.30;99.90;;;;;;2061225;28;19996;-72
2023/04/04 05:20:09;;;;;;;;;;;-0.30;99.90;;;;;;2059101;28;19992;-72
2023/04/04 05:21:10;;;;;;;;;;;-0.30;99.90;;;;;;2061038;28;19987;-72
2023/04/04 05:22:10;;;;;;;;;;;-0.30;99.90;;;;;;2060615;28;19909;-72
2023/04/04 05:23:10;;;;;;;;;;;-0.30;99.90;;;;;;2059202;28;20329;-72
2023/04/04 05:24:11;;;;;;;;;;;-0.30;99.90;;;;;;2057420;28;20374;-72
2023/04/04 05:25:12;;;;;;;;;;;-0.30;99.90;;;;;;2059982;28;19910;-72
2023/04/04 05:26:12;;;;;;;;;;;-0.30;99.90;;;;;;2060051;28;19921;-72
2023/04/04 05:27:13;;;;;;;;;;;-0.30;99.90;;;;;;2057961;28;19910;-72
2023/04/04 05:28:13;;;;;;;;;;;-0.30;99.90;;;;;;2059720;28;19941;-72
2023/04/04 05:29:14;;;;;;;;;;;-0.30;99.90;;;;;;2057923;28;20000;-72
2023/04/04 05:30:14;;;;;;;;;;;-0.30;99.90;;;;;;2058214;28;19917;-72
2023/04/04 05:31:15;;;;;;;;;;;-0.30;99.90;;;;;;2059743;28;20025;-72
2023/04/04 05:32:15;;;;;;;;;;;-0.20;99.90;;;;;;2060655;28;19909;-72
2023/04/04 05:33:16;;;;;;;;;;;-0.20;99.90;;;;;;2058824;28;19914;-72
2023/04/04 05:34:16;;;;;;;;;;;-0.20;99.90;;;;;;2057010;28;19956;-72
2023/04/04 05:35:17;;;;;;;;;;;-0.20;99.90;;;;;;2059400;28;20772;-72
2023/04/04 05:36:17;;;;;;;;;;;-0.20;99.90;;;;;;2057982;28;19914;-72
2023/04/04 05:37:18;;;;;;;;;;;-0.20;99.90;;;;;;2058308;28;19992;-72
2023/04/04 05:38:18;;;;;;;;;;;-0.20;99.90;;;;;;2059539;28;19914;-72
2023/04/04 05:39:19;;;;;;;;;;;-0.20;99.90;;;;;;2059474;28;19957;-72
2023/04/04 05:40:19;;;;;;;;;;;-0.20;99.90;;;;;;2057673;28;20563;-72
2023/04/04 05:41:20;;;;;;;;;;;-0.20;99.90;;;;;;2060094;28;19910;-72
2023/04/04 05:42:21;;;;;;;;;;;-0.10;99.90;;;;;;2058606;28;20309;-72
2023/04/04 05:43:21;;;;;;;;;;;-0.10;99.90;;;;;;2058309;28;19914;-72
2023/04/04 05:44:22;;;;;;;;;;;-0.10;99.90;;;;;;2058702;28;19960;-72
2023/04/04 05:45:23;;;;;;;;;;;-0.10;99.90;;;;;;2071920;28;20436;-72
2023/04/04 05:46:23;;;;;;;;;;;-0.10;99.90;;;;;;2075041;28;19905;-72
2023/04/04 05:47:23;;;;;;;;;;;-0.10;99.90;;;;;;2064605;28;19917;-72
2023/04/04 05:48:24;;;;;;;;;;;-0.10;99.90;;;;;;2066373;28;19918;-72
2023/04/04 05:49:24;;;;;;;;;;;-0.10;99.90;;;;;;2057342;28;20263;-72
2023/04/04 05:50:25;;;;;;;;;;;-0.10;99.90;;;;;;2057031;28;20007;-72
2023/04/04 05:51:26;;;;;;;;;;;0.00;99.90;;;;;;2058511;28;19914;-72
2023/04/04 05:52:26;;;;;;;;;;;0.00;99.90;;;;;;2066872;28;20418;-72
2023/04/04 05:53:27;;;;;;;;;;;0.00;99.90;;;;;;2065620;28;19967;-72
2023/04/04 05:54:27;;;;;;;;;;;0.00;99.90;;;;;;2058448;28;19917;-72
2023/04/04 05:55:28;;;;;;;;;;;0.00;99.90;;;;;;2057875;28;19910;-72
2023/04/04 05:56:28;;;;;;;;;;;0.00;99.90;;;;;;2059845;28;19921;-72
2023/04/04 05:57:29;;;;;;;;;;;0.10;99.90;;;;;;2058529;28;19936;-72
2023/04/04 05:58:29;;;;;;;;;;;0.10;99.90;;;;;;2060580;28;19921;-72